CET,Max TemperatureF,Mean TemperatureF,Min TemperatureF,Max Dew PointF,MeanDew PointF,Min DewpointF,Max Humidity, Mean Humidity, Min Humidity, Max Sea Level PressureIn, Mean Sea Level PressureIn, Min Sea Level PressureIn, Max VisibilityMiles, Mean VisibilityMiles, Min VisibilityMiles, Max Wind SpeedMPH, Mean Wind SpeedMPH, Max Gust SpeedMPH,PrecipitationIn, CloudCover, Events, WindDirDegrees
2012-10-1,63,58,52,57,53,50,94,84,60,30.04,29.95,29.89,19,8,6,17,12,,0.04,8,Rain,198
2012-10-2,63,58,54,56,54,51,100,85,63,29.94,29.89,29.83,14,7,5,17,12,,0.01,6,Rain,207
2012-10-3,58,54,51,55,53,48,100,88,76,29.81,29.74,29.71,19,7,4,24,15,28,0.12,5,Rain,203
2012-10-4,58,54,50,52,49,45,100,82,61,29.91,29.75,29.62,19,7,6,17,11,28,0.08,5,Rain,225
2012-10-5,61,56,51,59,52,46,100,87,67,29.86,29.74,29.56,17,6,3,30,14,45,0.04,6,Rain,222
2012-10-6,60,52,44,52,48,45,100,90,63,29.99,29.85,29.68,19,6,3,10,5,,0.16,6,Rain,317
2012-10-7,59,49,39,46,44,41,100,84,51,30.24,30.12,29.98,16,6,1,10,3,,0.00,4,Fog,300
2012-10-8,56,47,38,48,44,41,100,84,54,30.23,30.06,29.89,15,6,1,10,4,,0.00,6,,133
2012-10-9,57,46,36,50,42,37,100,85,45,30.04,29.97,29.86,19,6,0,8,2,,0.00,6,Fog,355
2012-10-10,57,50,42,46,44,41,100,80,51,30.04,30.00,29.98,19,8,6,8,3,,0.00,6,,79
2012-10-11,57,48,38,48,43,39,100,80,53,29.98,29.81,29.65,13,7,6,15,7,,0.03,7,,104
2012-10-12,57,52,48,57,51,43,100,89,67,29.83,29.65,29.53,14,5,2,23,11,32,0.16,6,Rain-Thunderstorm,210
2012-10-13,52,49,46,52,47,45,100,94,82,29.82,29.68,29.56,19,7,4,14,10,,0.28,7,Rain-Thunderstorm,191
2012-10-14,54,48,43,48,46,43,100,90,68,29.56,29.48,29.42,15,6,3,18,11,20,0.47,6,Rain,220
2012-10-15,55,50,44,48,44,37,100,78,49,29.68,29.58,29.42,19,7,4,20,9,29,0.01,4,Rain,236
2012-10-16,58,53,48,52,47,45,100,81,56,29.75,29.62,29.53,13,6,3,28,17,39,0.12,4,Rain,202
2012-10-17,60,53,46,55,51,46,100,90,78,29.77,29.66,29.59,17,7,6,17,12,,0.08,5,Rain,170
2012-10-18,60,58,55,59,57,54,100,93,78,29.78,29.69,29.62,14,7,4,17,9,30,0.08,6,Rain,171
2012-10-19,69,62,54,59,57,55,100,84,64,29.86,29.80,29.74,19,6,0,12,5,,0.00,5,Fog-Rain,162
2012-10-20,59,57,55,59,56,54,100,91,77,30.09,29.99,29.83,19,7,6,14,7,,0.00,7,Rain,221
2012-10-21,57,54,51,57,55,50,100,99,92,30.06,30.04,30.01,19,5,1,17,9,24,0.00,8,Rain,38
2012-10-22,69,62,55,64,59,55,100,95,76,30.20,30.11,30.06,7,3,0,7,5,,0.00,6,Fog,58
2012-10-23,64,59,54,59,56,55,100,94,72,30.25,30.21,30.18,6,3,1,9,5,,0.00,8,,65
2012-10-24,58,54,50,56,54,51,100,97,88,30.21,30.13,30.09,3,2,1,12,7,,0.00,6,Rain,70
2012-10-25,55,52,48,52,49,43,100,88,65,30.09,30.02,29.98,12,5,1,10,7,,0.01,7,Rain,34
2012-10-26,46,42,35,45,34,25,87,68,42,30.01,29.89,29.71,17,7,6,16,9,,0.00,6,Rain,46
2012-10-27,47,38,30,39,32,27,93,80,48,30.01,29.81,29.68,6,6,6,16,5,,0.00,3,Rain,5
2012-10-28,49,40,30,41,35,30,100,82,47,30.01,29.97,29.89,19,7,6,17,6,,0.00,5,Rain,206
2012-10-29,50,46,43,48,45,39,100,93,67,29.89,29.78,29.65,16,7,4,18,15,25,0.20,7,Rain,204
2012-10-30,49,45,41,48,44,39,100,93,77,29.66,29.61,29.56,13,6,1,13,6,,0.04,6,Rain-Thunderstorm,213
2012-10-31,54,47,40,46,42,37,100,79,54,29.56,29.39,29.18,12,6,3,18,12,29,0.00,6,Rain,177